sensor_id;sensor_type;location;lat;lon;timestamp;pressure;altitude;pressure_sealevel;temperature;humidity
79118;BME280;68523;51.336;-0.846;2023-07-13T00:00:00;101530.0;;;14.29;85.65
79118;BME280;68523;51.336;-0.846;2023-07-13T00:03:00;101530.0;;;14.23;85.94
79118;BME280;68523;51.336;-0.846;2023-07-13T00:06:01;101530.0;;;14.26;85.82
79118;BME280;68523;51.336;-0.846;2023-07-13T00:09:00;101530.0;;;14.23;85.88
79118;BME280;68523;51.336;-0.846;2023-07-13T00:12:01;101530.0;;;14.16;86.21
79118;BME280;68523;51.336;-0.846;2023-07-13T00:15:03;101530.0;;;14.11;86.52
79118;BME280;68523;51.336;-0.846;2023-07-13T00:18:00;101530.0;;;14.10;86.63
79118;BME280;68523;51.336;-0.846;2023-07-13T00:21:00;101530.0;;;14.11;86.66
79118;BME280;68523;51.336;-0.846;2023-07-13T00:24:00;101530.0;;;14.04;87.03
79118;BME280;68523;51.336;-0.846;2023-07-13T00:27:00;101520.0;;;13.97;87.50
79118;BME280;68523;51.336;-0.846;2023-07-13T00:30:00;101520.0;;;13.84;87.87
79118;BME280;68523;51.336;-0.846;2023-07-13T00:33:00;101520.0;;;13.69;88.62
79118;BME280;68523;51.336;-0.846;2023-07-13T00:36:00;101520.0;;;13.61;89.15
79118;BME280;68523;51.336;-0.846;2023-07-13T00:39:00;101520.0;;;13.50;89.60
79118;BME280;68523;51.336;-0.846;2023-07-13T00:42:00;101520.0;;;13.42;90.20
79118;BME280;68523;51.336;-0.846;2023-07-13T00:45:03;101520.0;;;13.40;90.40
79118;BME280;68523;51.336;-0.846;2023-07-13T00:48:00;101520.0;;;13.27;90.92
79118;BME280;68523;51.336;-0.846;2023-07-13T00:51:01;101520.0;;;13.28;91.19
79118;BME280;68523;51.336;-0.846;2023-07-13T00:54:04;101520.0;;;13.26;91.00
79118;BME280;68523;51.336;-0.846;2023-07-13T00:57:02;101520.0;;;13.29;90.86
79118;BME280;68523;51.336;-0.846;2023-07-13T01:00:04;101530.0;;;13.28;90.66
79118;BME280;68523;51.336;-0.846;2023-07-13T01:03:00;101530.0;;;13.15;90.69
79118;BME280;68523;51.336;-0.846;2023-07-13T01:06:00;101530.0;;;13.04;91.13
79118;BME280;68523;51.336;-0.846;2023-07-13T01:09:01;101530.0;;;12.75;92.08
79118;BME280;68523;51.336;-0.846;2023-07-13T01:12:00;101530.0;;;12.70;92.49
79118;BME280;68523;51.336;-0.846;2023-07-13T01:15:01;101530.0;;;12.62;92.94
79118;BME280;68523;51.336;-0.846;2023-07-13T01:18:00;101530.0;;;12.52;93.25
79118;BME280;68523;51.336;-0.846;2023-07-13T01:21:02;101530.0;;;12.48;93.21
79118;BME280;68523;51.336;-0.846;2023-07-13T01:24:00;101530.0;;;12.42;93.56
79118;BME280;68523;51.336;-0.846;2023-07-13T01:27:00;101530.0;;;12.41;93.52
79118;BME280;68523;51.336;-0.846;2023-07-13T01:30:00;101530.0;;;12.41;94.00
79118;BME280;68523;51.336;-0.846;2023-07-13T01:33:00;101530.0;;;12.63;94.11
79118;BME280;68523;51.336;-0.846;2023-07-13T01:36:00;101530.0;;;12.67;93.79
79118;BME280;68523;51.336;-0.846;2023-07-13T01:39:00;101530.0;;;12.66;93.97
79118;BME280;68523;51.336;-0.846;2023-07-13T01:42:00;101520.0;;;12.66;94.09
79118;BME280;68523;51.336;-0.846;2023-07-13T01:45:00;101520.0;;;12.70;94.15
79118;BME280;68523;51.336;-0.846;2023-07-13T01:48:00;101520.0;;;12.73;94.18
79118;BME280;68523;51.336;-0.846;2023-07-13T01:51:00;101520.0;;;12.68;94.20
79118;BME280;68523;51.336;-0.846;2023-07-13T01:54:00;101520.0;;;12.68;94.18
79118;BME280;68523;51.336;-0.846;2023-07-13T01:57:00;101520.0;;;12.71;94.47
79118;BME280;68523;51.336;-0.846;2023-07-13T02:00:03;101520.0;;;12.77;94.23
79118;BME280;68523;51.336;-0.846;2023-07-13T02:03:00;101520.0;;;12.84;94.04
79118;BME280;68523;51.336;-0.846;2023-07-13T02:06:00;101520.0;;;12.88;93.96
79118;BME280;68523;51.336;-0.846;2023-07-13T02:09:00;101520.0;;;12.87;93.70
79118;BME280;68523;51.336;-0.846;2023-07-13T02:12:00;101520.0;;;12.89;93.67
79118;BME280;68523;51.336;-0.846;2023-07-13T02:15:00;101520.0;;;12.93;93.47
79118;BME280;68523;51.336;-0.846;2023-07-13T02:18:00;101510.0;;;12.91;93.33
79118;BME280;68523;51.336;-0.846;2023-07-13T02:21:00;101510.0;;;12.91;93.36
79118;BME280;68523;51.336;-0.846;2023-07-13T02:24:00;101520.0;;;12.87;93.46
79118;BME280;68523;51.336;-0.846;2023-07-13T02:27:00;101510.0;;;12.84;93.53
79118;BME280;68523;51.336;-0.846;2023-07-13T02:30:00;101510.0;;;12.77;93.80
79118;BME280;68523;51.336;-0.846;2023-07-13T02:33:00;101510.0;;;12.65;94.12
79118;BME280;68523;51.336;-0.846;2023-07-13T02:36:00;101510.0;;;12.61;94.23
79118;BME280;68523;51.336;-0.846;2023-07-13T02:39:01;101510.0;;;12.60;94.34
79118;BME280;68523;51.336;-0.846;2023-07-13T02:42:00;101510.0;;;12.61;94.17
79118;BME280;68523;51.336;-0.846;2023-07-13T02:45:00;101510.0;;;12.59;94.19
79118;BME280;68523;51.336;-0.846;2023-07-13T02:48:00;101510.0;;;12.62;94.04
79118;BME280;68523;51.336;-0.846;2023-07-13T02:51:00;101510.0;;;12.60;93.94
79118;BME280;68523;51.336;-0.846;2023-07-13T02:54:00;101500.0;;;12.55;93.98
79118;BME280;68523;51.336;-0.846;2023-07-13T02:57:00;101510.0;;;12.53;94.07
79118;BME280;68523;51.336;-0.846;2023-07-13T03:00:00;101510.0;;;12.55;94.02
79118;BME280;68523;51.336;-0.846;2023-07-13T03:03:00;101510.0;;;12.53;93.99
79118;BME280;68523;51.336;-0.846;2023-07-13T03:06:01;101510.0;;;12.48;94.14
79118;BME280;68523;51.336;-0.846;2023-07-13T03:09:00;101510.0;;;12.44;94.15
79118;BME280;68523;51.336;-0.846;2023-07-13T03:12:00;101520.0;;;12.48;94.09
79118;BME280;68523;51.336;-0.846;2023-07-13T03:15:00;101520.0;;;12.52;94.06
79118;BME280;68523;51.336;-0.846;2023-07-13T03:18:00;101510.0;;;12.56;93.98
79118;BME280;68523;51.336;-0.846;2023-07-13T03:21:00;101510.0;;;12.56;93.94
79118;BME280;68523;51.336;-0.846;2023-07-13T03:24:00;101510.0;;;12.55;93.83
79118;BME280;68523;51.336;-0.846;2023-07-13T03:27:01;101510.0;;;12.55;93.86
79118;BME280;68523;51.336;-0.846;2023-07-13T03:30:00;101510.0;;;12.53;93.72
79118;BME280;68523;51.336;-0.846;2023-07-13T03:33:00;101510.0;;;12.49;93.93
79118;BME280;68523;51.336;-0.846;2023-07-13T03:36:00;101510.0;;;12.32;94.00
79118;BME280;68523;51.336;-0.846;2023-07-13T03:39:02;101520.0;;;12.21;94.52
79118;BME280;68523;51.336;-0.846;2023-07-13T03:42:00;101530.0;;;12.18;94.47
79118;BME280;68523;51.336;-0.846;2023-07-13T03:45:00;101530.0;;;12.13;94.68
79118;BME280;68523;51.336;-0.846;2023-07-13T03:48:00;101530.0;;;12.01;95.02
79118;BME280;68523;51.336;-0.846;2023-07-13T03:51:00;101530.0;;;12.01;95.11
79118;BME280;68523;51.336;-0.846;2023-07-13T03:54:00;101520.0;;;12.00;94.99
79118;BME280;68523;51.336;-0.846;2023-07-13T03:57:00;101530.0;;;11.96;95.30
79118;BME280;68523;51.336;-0.846;2023-07-13T04:00:00;101530.0;;;11.96;95.36
79118;BME280;68523;51.336;-0.846;2023-07-13T04:03:00;101530.0;;;11.82;95.13
79118;BME280;68523;51.336;-0.846;2023-07-13T04:06:01;101540.0;;;11.94;95.56
79118;BME280;68523;51.336;-0.846;2023-07-13T04:09:02;101540.0;;;11.93;95.51
79118;BME280;68523;51.336;-0.846;2023-07-13T04:12:00;101540.0;;;12.05;95.42
79118;BME280;68523;51.336;-0.846;2023-07-13T04:15:00;101540.0;;;12.00;95.38
79118;BME280;68523;51.336;-0.846;2023-07-13T04:18:00;101540.0;;;12.11;95.17
79118;BME280;68523;51.336;-0.846;2023-07-13T04:21:00;101540.0;;;12.11;95.11
79118;BME280;68523;51.336;-0.846;2023-07-13T04:24:00;101540.0;;;12.14;95.13
79118;BME280;68523;51.336;-0.846;2023-07-13T04:27:00;101540.0;;;12.19;95.05
79118;BME280;68523;51.336;-0.846;2023-07-13T04:30:00;101550.0;;;12.23;94.91
79118;BME280;68523;51.336;-0.846;2023-07-13T04:33:00;101540.0;;;12.24;94.85
79118;BME280;68523;51.336;-0.846;2023-07-13T04:36:00;101550.0;;;12.29;94.71
79118;BME280;68523;51.336;-0.846;2023-07-13T04:39:00;101550.0;;;12.33;94.62
79118;BME280;68523;51.336;-0.846;2023-07-13T04:42:00;101550.0;;;12.37;94.51
79118;BME280;68523;51.336;-0.846;2023-07-13T04:45:00;101550.0;;;12.38;94.52
79118;BME280;68523;51.336;-0.846;2023-07-13T04:48:00;101550.0;;;12.39;94.47
79118;BME280;68523;51.336;-0.846;2023-07-13T04:51:00;101550.0;;;12.45;94.43
79118;BME280;68523;51.336;-0.846;2023-07-13T04:54:00;101550.0;;;12.50;94.26
79118;BME280;68523;51.336;-0.846;2023-07-13T04:57:01;101550.0;;;12.62;94.09
79118;BME280;68523;51.336;-0.846;2023-07-13T05:00:00;101550.0;;;12.74;93.80
79118;BME280;68523;51.336;-0.846;2023-07-13T05:03:00;101550.0;;;12.90;93.46
79118;BME280;68523;51.336;-0.846;2023-07-13T05:06:03;101550.0;;;13.03;93.12
79118;BME280;68523;51.336;-0.846;2023-07-13T05:09:01;101550.0;;;13.11;92.86
79118;BME280;68523;51.336;-0.846;2023-07-13T05:12:00;101550.0;;;13.21;92.67
79118;BME280;68523;51.336;-0.846;2023-07-13T05:15:01;101560.0;;;13.67;91.35
79118;BME280;68523;51.336;-0.846;2023-07-13T05:18:00;101550.0;;;14.41;88.42
79118;BME280;68523;51.336;-0.846;2023-07-13T05:21:02;101560.0;;;14.65;87.48
79118;BME280;68523;51.336;-0.846;2023-07-13T05:24:00;101560.0;;;14.69;87.47
79118;BME280;68523;51.336;-0.846;2023-07-13T05:27:00;101560.0;;;14.90;87.23
79118;BME280;68523;51.336;-0.846;2023-07-13T05:30:00;101560.0;;;15.27;86.19
79118;BME280;68523;51.336;-0.846;2023-07-13T05:33:00;101570.0;;;15.42;85.51
79118;BME280;68523;51.336;-0.846;2023-07-13T05:36:00;101570.0;;;15.61;85.06
79118;BME280;68523;51.336;-0.846;2023-07-13T05:39:00;101570.0;;;14.67;88.65
79118;BME280;68523;51.336;-0.846;2023-07-13T05:42:02;101580.0;;;14.61;89.14
79118;BME280;68523;51.336;-0.846;2023-07-13T05:45:02;101580.0;;;14.69;88.88
79118;BME280;68523;51.336;-0.846;2023-07-13T05:48:00;101580.0;;;14.66;88.84
79118;BME280;68523;51.336;-0.846;2023-07-13T05:51:00;101580.0;;;14.71;88.78
79118;BME280;68523;51.336;-0.846;2023-07-13T05:54:00;101590.0;;;15.22;87.14
79118;BME280;68523;51.336;-0.846;2023-07-13T05:57:00;101590.0;;;14.94;87.27
79118;BME280;68523;51.336;-0.846;2023-07-13T06:00:00;101600.0;;;14.85;87.88
79118;BME280;68523;51.336;-0.846;2023-07-13T06:03:00;101600.0;;;15.78;85.36
79118;BME280;68523;51.336;-0.846;2023-07-13T06:06:00;101610.0;;;16.31;82.66
79118;BME280;68523;51.336;-0.846;2023-07-13T06:09:00;101610.0;;;16.45;81.80
79118;BME280;68523;51.336;-0.846;2023-07-13T06:12:00;101610.0;;;16.60;81.39
79118;BME280;68523;51.336;-0.846;2023-07-13T06:15:00;101610.0;;;15.62;84.64
79118;BME280;68523;51.336;-0.846;2023-07-13T06:18:00;101610.0;;;15.41;85.82
79118;BME280;68523;51.336;-0.846;2023-07-13T06:21:01;101620.0;;;15.30;85.89
79118;BME280;68523;51.336;-0.846;2023-07-13T06:24:00;101620.0;;;15.37;85.88
79118;BME280;68523;51.336;-0.846;2023-07-13T06:27:00;101620.0;;;15.33;85.89
79118;BME280;68523;51.336;-0.846;2023-07-13T06:30:00;101620.0;;;15.28;86.28
79118;BME280;68523;51.336;-0.846;2023-07-13T06:33:00;101630.0;;;15.30;85.75
79118;BME280;68523;51.336;-0.846;2023-07-13T06:36:02;101630.0;;;15.36;85.95
79118;BME280;68523;51.336;-0.846;2023-07-13T06:39:00;101630.0;;;15.41;85.81
79118;BME280;68523;51.336;-0.846;2023-07-13T06:42:00;101640.0;;;15.37;86.11
79118;BME280;68523;51.336;-0.846;2023-07-13T06:45:00;101640.0;;;15.35;85.83
79118;BME280;68523;51.336;-0.846;2023-07-13T06:48:00;101650.0;;;15.64;85.25
79118;BME280;68523;51.336;-0.846;2023-07-13T06:51:02;101650.0;;;15.53;85.25
79118;BME280;68523;51.336;-0.846;2023-07-13T06:54:00;101650.0;;;15.71;84.73
79118;BME280;68523;51.336;-0.846;2023-07-13T06:57:00;101660.0;;;15.84;84.28
79118;BME280;68523;51.336;-0.846;2023-07-13T07:00:00;101660.0;;;15.92;83.83
79118;BME280;68523;51.336;-0.846;2023-07-13T07:03:00;101660.0;;;16.04;83.44
79118;BME280;68523;51.336;-0.846;2023-07-13T07:06:01;101660.0;;;16.16;83.34
79118;BME280;68523;51.336;-0.846;2023-07-13T07:09:00;101660.0;;;16.24;83.19
79118;BME280;68523;51.336;-0.846;2023-07-13T07:12:00;101660.0;;;16.07;83.11
79118;BME280;68523;51.336;-0.846;2023-07-13T07:15:00;101670.0;;;16.39;82.63
79118;BME280;68523;51.336;-0.846;2023-07-13T07:18:00;101670.0;;;16.54;82.58
79118;BME280;68523;51.336;-0.846;2023-07-13T07:21:00;101680.0;;;16.49;82.21
79118;BME280;68523;51.336;-0.846;2023-07-13T07:24:00;101680.0;;;16.40;82.29
79118;BME280;68523;51.336;-0.846;2023-07-13T07:27:00;101680.0;;;16.55;82.05
79118;BME280;68523;51.336;-0.846;2023-07-13T07:30:00;101680.0;;;16.89;81.05
79118;BME280;68523;51.336;-0.846;2023-07-13T07:33:00;101680.0;;;17.11;81.09
79118;BME280;68523;51.336;-0.846;2023-07-13T07:36:00;101680.0;;;16.90;80.74
79118;BME280;68523;51.336;-0.846;2023-07-13T07:39:01;101690.0;;;17.05;80.11
79118;BME280;68523;51.336;-0.846;2023-07-13T07:42:00;101690.0;;;17.30;79.60
79118;BME280;68523;51.336;-0.846;2023-07-13T07:45:00;101700.0;;;17.12;79.44
79118;BME280;68523;51.336;-0.846;2023-07-13T07:48:00;101700.0;;;17.10;79.33
79118;BME280;68523;51.336;-0.846;2023-07-13T07:51:00;101700.0;;;17.42;79.82
79118;BME280;68523;51.336;-0.846;2023-07-13T07:54:00;101700.0;;;17.19;78.93
79118;BME280;68523;51.336;-0.846;2023-07-13T07:57:00;101710.0;;;17.14;79.36
79118;BME280;68523;51.336;-0.846;2023-07-13T08:00:00;101710.0;;;16.95;79.19
79118;BME280;68523;51.336;-0.846;2023-07-13T08:03:00;101710.0;;;17.02;79.38
79118;BME280;68523;51.336;-0.846;2023-07-13T08:06:00;101710.0;;;16.98;79.49
79118;BME280;68523;51.336;-0.846;2023-07-13T08:09:00;101710.0;;;17.13;79.47
79118;BME280;68523;51.336;-0.846;2023-07-13T08:12:00;101710.0;;;17.49;77.59
79118;BME280;68523;51.336;-0.846;2023-07-13T08:15:00;101710.0;;;17.60;77.48
79118;BME280;68523;51.336;-0.846;2023-07-13T08:18:00;101710.0;;;17.35;78.00
79118;BME280;68523;51.336;-0.846;2023-07-13T08:21:03;101710.0;;;17.55;77.55
79118;BME280;68523;51.336;-0.846;2023-07-13T08:24:00;101710.0;;;17.40;77.92
79118;BME280;68523;51.336;-0.846;2023-07-13T08:27:00;101710.0;;;17.94;77.49
79118;BME280;68523;51.336;-0.846;2023-07-13T08:30:00;101700.0;;;17.77;77.81
79118;BME280;68523;51.336;-0.846;2023-07-13T08:33:00;101700.0;;;18.46;76.63
79118;BME280;68523;51.336;-0.846;2023-07-13T08:36:00;101700.0;;;18.39;76.82
79118;BME280;68523;51.336;-0.846;2023-07-13T08:39:00;101700.0;;;18.50;76.40
79118;BME280;68523;51.336;-0.846;2023-07-13T08:42:02;101700.0;;;18.45;74.59
79118;BME280;68523;51.336;-0.846;2023-07-13T08:45:07;101700.0;;;18.10;75.31
79118;BME280;68523;51.336;-0.846;2023-07-13T08:48:05;101700.0;;;18.41;75.17
79118;BME280;68523;51.336;-0.846;2023-07-13T08:51:07;101700.0;;;17.84;75.95
79118;BME280;68523;51.336;-0.846;2023-07-13T08:54:03;101700.0;;;18.49;73.92
79118;BME280;68523;51.336;-0.846;2023-07-13T08:57:08;101700.0;;;18.85;74.50
79118;BME280;68523;51.336;-0.846;2023-07-13T09:00:01;101700.0;;;18.72;74.01
79118;BME280;68523;51.336;-0.846;2023-07-13T09:03:02;101690.0;;;19.79;70.66
79118;BME280;68523;51.336;-0.846;2023-07-13T09:06:02;101690.0;;;19.55;71.16
79118;BME280;68523;51.336;-0.846;2023-07-13T09:09:04;101690.0;;;19.24;73.29
79118;BME280;68523;51.336;-0.846;2023-07-13T09:12:07;101700.0;;;19.85;71.48
79118;BME280;68523;51.336;-0.846;2023-07-13T09:15:02;101700.0;;;19.35;71.86
79118;BME280;68523;51.336;-0.846;2023-07-13T09:18:08;101700.0;;;19.88;67.94
79118;BME280;68523;51.336;-0.846;2023-07-13T09:21:03;101700.0;;;19.00;70.62
79118;BME280;68523;51.336;-0.846;2023-07-13T09:27:02;101700.0;;;19.26;71.76
79118;BME280;68523;51.336;-0.846;2023-07-13T09:30:09;101700.0;;;19.74;69.56
79118;BME280;68523;51.336;-0.846;2023-07-13T09:33:00;101700.0;;;19.95;68.79
79118;BME280;68523;51.336;-0.846;2023-07-13T09:36:00;101700.0;;;19.78;68.58
79118;BME280;68523;51.336;-0.846;2023-07-13T09:39:05;101700.0;;;19.61;68.45
79118;BME280;68523;51.336;-0.846;2023-07-13T09:42:06;101700.0;;;19.77;68.50
79118;BME280;68523;51.336;-0.846;2023-07-13T09:45:01;101700.0;;;19.42;69.15
79118;BME280;68523;51.336;-0.846;2023-07-13T09:48:05;101700.0;;;19.74;69.01
79118;BME280;68523;51.336;-0.846;2023-07-13T09:51:09;101710.0;;;19.43;70.93
79118;BME280;68523;51.336;-0.846;2023-07-13T09:54:00;101710.0;;;19.10;70.36
79118;BME280;68523;51.336;-0.846;2023-07-13T09:57:01;101710.0;;;19.38;70.09
79118;BME280;68523;51.336;-0.846;2023-07-13T10:00:00;101720.0;;;19.24;69.37
79118;BME280;68523;51.336;-0.846;2023-07-13T10:03:03;101710.0;;;19.62;68.15
79118;BME280;68523;51.336;-0.846;2023-07-13T10:06:11;101720.0;;;19.50;69.51
79118;BME280;68523;51.336;-0.846;2023-07-13T10:09:00;101710.0;;;19.74;68.90
79118;BME280;68523;51.336;-0.846;2023-07-13T10:12:00;101720.0;;;20.18;67.88
79118;BME280;68523;51.336;-0.846;2023-07-13T10:15:01;101710.0;;;19.90;67.97
79118;BME280;68523;51.336;-0.846;2023-07-13T10:18:00;101710.0;;;19.57;69.48
79118;BME280;68523;51.336;-0.846;2023-07-13T10:21:11;101710.0;;;19.95;67.98
79118;BME280;68523;51.336;-0.846;2023-07-13T10:24:05;101710.0;;;19.92;68.06
79118;BME280;68523;51.336;-0.846;2023-07-13T10:27:03;101710.0;;;20.05;67.57
79118;BME280;68523;51.336;-0.846;2023-07-13T10:30:06;101710.0;;;20.24;65.64
79118;BME280;68523;51.336;-0.846;2023-07-13T10:33:02;101710.0;;;20.16;66.69
79118;BME280;68523;51.336;-0.846;2023-07-13T10:36:11;101710.0;;;20.30;66.13
79118;BME280;68523;51.336;-0.846;2023-07-13T10:39:03;101720.0;;;20.31;66.34
79118;BME280;68523;51.336;-0.846;2023-07-13T10:42:05;101720.0;;;20.53;65.12
79118;BME280;68523;51.336;-0.846;2023-07-13T10:45:00;101710.0;;;20.66;64.78
79118;BME280;68523;51.336;-0.846;2023-07-13T10:48:00;101710.0;;;20.24;66.32
79118;BME280;68523;51.336;-0.846;2023-07-13T10:51:00;101720.0;;;19.70;65.72
79118;BME280;68523;51.336;-0.846;2023-07-13T10:54:14;101710.0;;;19.92;66.22
79118;BME280;68523;51.336;-0.846;2023-07-13T10:57:15;101710.0;;;20.65;64.47
79118;BME280;68523;51.336;-0.846;2023-07-13T11:00:14;101710.0;;;20.64;64.89
79118;BME280;68523;51.336;-0.846;2023-07-13T11:03:02;101710.0;;;20.53;63.87
79118;BME280;68523;51.336;-0.846;2023-07-13T11:06:07;101710.0;;;20.41;63.54
79118;BME280;68523;51.336;-0.846;2023-07-13T11:09:24;101710.0;;;20.67;62.93
79118;BME280;68523;51.336;-0.846;2023-07-13T11:12:01;101710.0;;;20.37;64.17
79118;BME280;68523;51.336;-0.846;2023-07-13T11:15:04;101710.0;;;20.40;65.13
79118;BME280;68523;51.336;-0.846;2023-07-13T11:18:03;101710.0;;;20.17;65.34
79118;BME280;68523;51.336;-0.846;2023-07-13T11:21:12;101710.0;;;20.11;66.61
79118;BME280;68523;51.336;-0.846;2023-07-13T11:24:03;101700.0;;;20.59;64.73
79118;BME280;68523;51.336;-0.846;2023-07-13T11:27:18;101710.0;;;20.60;64.28
79118;BME280;68523;51.336;-0.846;2023-07-13T11:33:10;101710.0;;;21.29;63.84
79118;BME280;68523;51.336;-0.846;2023-07-13T11:36:03;101710.0;;;21.47;61.94
79118;BME280;68523;51.336;-0.846;2023-07-13T11:39:02;101710.0;;;21.97;61.21
79118;BME280;68523;51.336;-0.846;2023-07-13T11:42:02;101710.0;;;22.53;59.87
79118;BME280;68523;51.336;-0.846;2023-07-13T11:45:00;101710.0;;;21.38;62.82
79118;BME280;68523;51.336;-0.846;2023-07-13T11:48:01;101710.0;;;20.75;65.37
79118;BME280;68523;51.336;-0.846;2023-07-13T11:51:02;101710.0;;;20.32;66.60
79118;BME280;68523;51.336;-0.846;2023-07-13T11:54:03;101710.0;;;20.18;66.07
79118;BME280;68523;51.336;-0.846;2023-07-13T11:57:03;101710.0;;;20.65;65.45
79118;BME280;68523;51.336;-0.846;2023-07-13T12:00:03;101700.0;;;20.77;66.93
79118;BME280;68523;51.336;-0.846;2023-07-13T12:03:02;101700.0;;;20.37;66.83
79118;BME280;68523;51.336;-0.846;2023-07-13T12:06:02;101690.0;;;20.30;67.02
79118;BME280;68523;51.336;-0.846;2023-07-13T12:09:03;101690.0;;;19.97;67.88
79118;BME280;68523;51.336;-0.846;2023-07-13T12:12:00;101690.0;;;19.86;68.26
79118;BME280;68523;51.336;-0.846;2023-07-13T12:15:00;101690.0;;;19.84;68.18
79118;BME280;68523;51.336;-0.846;2023-07-13T12:18:00;101690.0;;;19.69;70.09
79118;BME280;68523;51.336;-0.846;2023-07-13T12:21:00;101680.0;;;19.76;69.55
79118;BME280;68523;51.336;-0.846;2023-07-13T12:24:01;101680.0;;;19.85;70.02
79118;BME280;68523;51.336;-0.846;2023-07-13T12:27:02;101680.0;;;19.74;70.54
79118;BME280;68523;51.336;-0.846;2023-07-13T12:30:02;101680.0;;;19.50;71.95
79118;BME280;68523;51.336;-0.846;2023-07-13T12:33:05;101680.0;;;18.96;79.23
79118;BME280;68523;51.336;-0.846;2023-07-13T12:36:03;101680.0;;;18.63;78.60
79118;BME280;68523;51.336;-0.846;2023-07-13T12:39:04;101670.0;;;19.04;78.58
79118;BME280;68523;51.336;-0.846;2023-07-13T12:42:16;101670.0;;;19.24;78.72
79118;BME280;68523;51.336;-0.846;2023-07-13T12:45:05;101680.0;;;19.23;78.69
79118;BME280;68523;51.336;-0.846;2023-07-13T12:48:05;101680.0;;;19.79;75.34
79118;BME280;68523;51.336;-0.846;2023-07-13T12:51:01;101680.0;;;20.31;71.18
79118;BME280;68523;51.336;-0.846;2023-07-13T12:54:13;101680.0;;;20.65;72.19
79118;BME280;68523;51.336;-0.846;2023-07-13T12:57:00;101690.0;;;19.70;70.82
79118;BME280;68523;51.336;-0.846;2023-07-13T13:00:03;101690.0;;;19.32;72.55
79118;BME280;68523;51.336;-0.846;2023-07-13T13:03:03;101680.0;;;19.65;73.41
79118;BME280;68523;51.336;-0.846;2023-07-13T13:06:02;101680.0;;;19.79;73.19
79118;BME280;68523;51.336;-0.846;2023-07-13T13:09:00;101690.0;;;19.55;73.44
79118;BME280;68523;51.336;-0.846;2023-07-13T13:12:00;101680.0;;;19.69;72.82
79118;BME280;68523;51.336;-0.846;2023-07-13T13:15:00;101680.0;;;19.62;72.99
79118;BME280;68523;51.336;-0.846;2023-07-13T13:18:00;101690.0;;;19.26;73.68
79118;BME280;68523;51.336;-0.846;2023-07-13T13:21:00;101680.0;;;19.63;73.10
79118;BME280;68523;51.336;-0.846;2023-07-13T13:24:00;101680.0;;;19.48;73.09
79118;BME280;68523;51.336;-0.846;2023-07-13T13:27:00;101680.0;;;19.78;71.93
79118;BME280;68523;51.336;-0.846;2023-07-13T13:30:02;101680.0;;;20.02;67.93
79118;BME280;68523;51.336;-0.846;2023-07-13T13:33:00;101670.0;;;19.86;67.50
79118;BME280;68523;51.336;-0.846;2023-07-13T13:36:00;101670.0;;;21.05;64.87
79118;BME280;68523;51.336;-0.846;2023-07-13T13:39:00;101660.0;;;21.86;61.44
79118;BME280;68523;51.336;-0.846;2023-07-13T13:42:01;101660.0;;;23.07;60.37
79118;BME280;68523;51.336;-0.846;2023-07-13T13:45:00;101660.0;;;22.17;59.36
79118;BME280;68523;51.336;-0.846;2023-07-13T13:48:00;101660.0;;;22.32;58.61
79118;BME280;68523;51.336;-0.846;2023-07-13T13:51:06;101660.0;;;22.76;58.06
79118;BME280;68523;51.336;-0.846;2023-07-13T13:54:00;101660.0;;;22.86;54.03
79118;BME280;68523;51.336;-0.846;2023-07-13T13:57:00;101650.0;;;22.89;54.49
79118;BME280;68523;51.336;-0.846;2023-07-13T14:00:00;101650.0;;;21.85;56.80
79118;BME280;68523;51.336;-0.846;2023-07-13T14:03:00;101650.0;;;20.80;58.91
79118;BME280;68523;51.336;-0.846;2023-07-13T14:06:00;101660.0;;;20.58;61.23
79118;BME280;68523;51.336;-0.846;2023-07-13T14:09:01;101660.0;;;20.52;63.09
79118;BME280;68523;51.336;-0.846;2023-07-13T14:12:00;101660.0;;;20.23;64.46
79118;BME280;68523;51.336;-0.846;2023-07-13T14:15:00;101660.0;;;20.31;65.48
79118;BME280;68523;51.336;-0.846;2023-07-13T14:18:00;101660.0;;;20.64;64.89
79118;BME280;68523;51.336;-0.846;2023-07-13T14:21:00;101650.0;;;20.78;64.96
79118;BME280;68523;51.336;-0.846;2023-07-13T14:24:00;101650.0;;;20.77;64.76
79118;BME280;68523;51.336;-0.846;2023-07-13T14:27:00;101650.0;;;20.35;64.60
79118;BME280;68523;51.336;-0.846;2023-07-13T14:30:00;101650.0;;;20.16;65.53
79118;BME280;68523;51.336;-0.846;2023-07-13T14:33:00;101650.0;;;20.17;65.48
79118;BME280;68523;51.336;-0.846;2023-07-13T14:36:00;101650.0;;;20.45;64.06
79118;BME280;68523;51.336;-0.846;2023-07-13T14:39:11;101660.0;;;20.41;63.74
79118;BME280;68523;51.336;-0.846;2023-07-13T14:42:00;101660.0;;;20.13;64.64
79118;BME280;68523;51.336;-0.846;2023-07-13T14:45:00;101670.0;;;19.23;68.55
79118;BME280;68523;51.336;-0.846;2023-07-13T14:48:01;101680.0;;;18.96;69.26
79118;BME280;68523;51.336;-0.846;2023-07-13T14:51:00;101670.0;;;19.02;68.87
79118;BME280;68523;51.336;-0.846;2023-07-13T14:54:02;101680.0;;;18.97;69.10
79118;BME280;68523;51.336;-0.846;2023-07-13T14:57:00;101680.0;;;18.83;67.98
79118;BME280;68523;51.336;-0.846;2023-07-13T15:00:00;101680.0;;;18.67;69.58
79118;BME280;68523;51.336;-0.846;2023-07-13T15:03:01;101680.0;;;18.81;68.97
79118;BME280;68523;51.336;-0.846;2023-07-13T15:06:00;101680.0;;;18.68;69.61
79118;BME280;68523;51.336;-0.846;2023-07-13T15:09:00;101690.0;;;18.42;70.62
79118;BME280;68523;51.336;-0.846;2023-07-13T15:12:00;101680.0;;;18.37;71.25
79118;BME280;68523;51.336;-0.846;2023-07-13T15:15:00;101690.0;;;18.37;73.24
79118;BME280;68523;51.336;-0.846;2023-07-13T15:18:00;101690.0;;;18.20;75.28
79118;BME280;68523;51.336;-0.846;2023-07-13T15:21:00;101680.0;;;18.15;74.50
79118;BME280;68523;51.336;-0.846;2023-07-13T15:24:00;101680.0;;;18.18;75.25
79118;BME280;68523;51.336;-0.846;2023-07-13T15:27:00;101680.0;;;18.10;75.20
79118;BME280;68523;51.336;-0.846;2023-07-13T15:30:01;101680.0;;;18.37;74.91
79118;BME280;68523;51.336;-0.846;2023-07-13T15:33:10;101680.0;;;18.68;74.24
79118;BME280;68523;51.336;-0.846;2023-07-13T15:36:00;101680.0;;;18.75;73.66
79118;BME280;68523;51.336;-0.846;2023-07-13T15:39:00;101680.0;;;18.89;73.38
79118;BME280;68523;51.336;-0.846;2023-07-13T15:42:00;101670.0;;;18.82;72.72
79118;BME280;68523;51.336;-0.846;2023-07-13T15:45:00;101670.0;;;19.02;72.74